sensor_id;sensor_type;location;lat;lon;timestamp;temperature;humidity
47090;DHT22;32840;52.516;13.294;2023-05-10T00:01:41;14.30;66.80
47090;DHT22;32840;52.516;13.294;2023-05-10T00:04:26;14.30;66.90
47090;DHT22;32840;52.516;13.294;2023-05-10T00:07:11;14.30;67.10
47090;DHT22;32840;52.516;13.294;2023-05-10T00:09:56;14.20;67.10
47090;DHT22;32840;52.516;13.294;2023-05-10T00:12:41;14.20;67.20
47090;DHT22;32840;52.516;13.294;2023-05-10T00:15:26;14.20;67.40
47090;DHT22;32840;52.516;13.294;2023-05-10T00:18:11;14.20;67.40
47090;DHT22;32840;52.516;13.294;2023-05-10T00:20:56;14.20;67.50
47090;DHT22;32840;52.516;13.294;2023-05-10T00:23:41;14.20;67.50
47090;DHT22;32840;52.516;13.294;2023-05-10T00:26:26;14.10;67.80
47090;DHT22;32840;52.516;13.294;2023-05-10T00:29:11;14.10;67.80
47090;DHT22;32840;52.516;13.294;2023-05-10T00:31:56;14.10;67.80
47090;DHT22;32840;52.516;13.294;2023-05-10T00:34:41;14.10;68.00
47090;DHT22;32840;52.516;13.294;2023-05-10T00:37:26;14.10;68.20
47090;DHT22;32840;52.516;13.294;2023-05-10T00:40:11;14.00;68.00
47090;DHT22;32840;52.516;13.294;2023-05-10T00:42:57;14.00;68.10
47090;DHT22;32840;52.516;13.294;2023-05-10T00:45:43;14.00;68.80
47090;DHT22;32840;52.516;13.294;2023-05-10T00:48:29;14.00;68.30
47090;DHT22;32840;52.516;13.294;2023-05-10T00:51:15;14.00;68.30
47090;DHT22;32840;52.516;13.294;2023-05-10T00:54:00;13.90;68.40
47090;DHT22;32840;52.516;13.294;2023-05-10T00:56:44;13.90;68.60
47090;DHT22;32840;52.516;13.294;2023-05-10T00:59:34;13.90;68.70
47090;DHT22;32840;52.516;13.294;2023-05-10T01:02:19;13.80;68.70
47090;DHT22;32840;52.516;13.294;2023-05-10T01:05:04;13.80;68.70
47090;DHT22;32840;52.516;13.294;2023-05-10T01:07:49;13.90;69.00
47090;DHT22;32840;52.516;13.294;2023-05-10T01:10:34;13.70;69.00
47090;DHT22;32840;52.516;13.294;2023-05-10T01:13:32;13.80;69.20
47090;DHT22;32840;52.516;13.294;2023-05-10T01:16:17;13.70;69.30
47090;DHT22;32840;52.516;13.294;2023-05-10T01:19:05;13.70;69.40
47090;DHT22;32840;52.516;13.294;2023-05-10T01:25:18;13.70;69.80
47090;DHT22;32840;52.516;13.294;2023-05-10T01:28:38;13.60;70.00
47090;DHT22;32840;52.516;13.294;2023-05-10T01:31:38;13.60;70.00
47090;DHT22;32840;52.516;13.294;2023-05-10T01:34:48;13.60;70.10
47090;DHT22;32840;52.516;13.294;2023-05-10T01:38:04;13.60;70.20
47090;DHT22;32840;52.516;13.294;2023-05-10T01:47:37;13.40;70.90
47090;DHT22;32840;52.516;13.294;2023-05-10T01:50:27;13.30;71.20
47090;DHT22;32840;52.516;13.294;2023-05-10T01:53:18;13.30;71.60
47090;DHT22;32840;52.516;13.294;2023-05-10T01:56:04;13.30;71.70
47090;DHT22;32840;52.516;13.294;2023-05-10T01:58:49;13.30;72.20
47090;DHT22;32840;52.516;13.294;2023-05-10T02:01:36;13.20;72.50
47090;DHT22;32840;52.516;13.294;2023-05-10T02:04:22;13.20;72.60
47090;DHT22;32840;52.516;13.294;2023-05-10T02:07:08;13.10;73.00
47090;DHT22;32840;52.516;13.294;2023-05-10T02:09:55;13.00;73.10
47090;DHT22;32840;52.516;13.294;2023-05-10T02:12:43;13.00;73.10
47090;DHT22;32840;52.516;13.294;2023-05-10T02:15:28;13.00;73.20
47090;DHT22;32840;52.516;13.294;2023-05-10T02:18:14;13.00;73.30
47090;DHT22;32840;52.516;13.294;2023-05-10T02:21:02;13.00;73.30
47090;DHT22;32840;52.516;13.294;2023-05-10T02:23:49;13.00;73.40
47090;DHT22;32840;52.516;13.294;2023-05-10T02:26:36;13.00;73.60
47090;DHT22;32840;52.516;13.294;2023-05-10T02:29:24;13.00;73.70
47090;DHT22;32840;52.516;13.294;2023-05-10T02:32:11;13.00;73.80
47090;DHT22;32840;52.516;13.294;2023-05-10T02:34:57;12.90;73.90
47090;DHT22;32840;52.516;13.294;2023-05-10T02:37:44;12.90;74.80
47090;DHT22;32840;52.516;13.294;2023-05-10T02:40:30;12.90;75.00
47090;DHT22;32840;52.516;13.294;2023-05-10T02:43:17;12.90;74.20
47090;DHT22;32840;52.516;13.294;2023-05-10T02:46:03;12.90;74.20
47090;DHT22;32840;52.516;13.294;2023-05-10T02:48:48;12.80;74.30
47090;DHT22;32840;52.516;13.294;2023-05-10T02:51:35;12.80;74.60
47090;DHT22;32840;52.516;13.294;2023-05-10T02:54:28;12.70;74.80
47090;DHT22;32840;52.516;13.294;2023-05-10T02:57:16;12.70;74.90
47090;DHT22;32840;52.516;13.294;2023-05-10T03:00:04;12.70;75.00
47090;DHT22;32840;52.516;13.294;2023-05-10T03:02:49;12.70;75.10
47090;DHT22;32840;52.516;13.294;2023-05-10T03:05:34;12.70;75.20
47090;DHT22;32840;52.516;13.294;2023-05-10T03:08:19;12.70;75.50
47090;DHT22;32840;52.516;13.294;2023-05-10T03:14:45;12.60;76.00
47090;DHT22;32840;52.516;13.294;2023-05-10T03:17:41;12.60;76.20
47090;DHT22;32840;52.516;13.294;2023-05-10T03:20:38;12.60;76.50
47090;DHT22;32840;52.516;13.294;2023-05-10T03:23:59;12.50;76.70
47090;DHT22;32840;52.516;13.294;2023-05-10T03:26:49;12.50;76.80
47090;DHT22;32840;52.516;13.294;2023-05-10T03:29:36;12.50;77.00
47090;DHT22;32840;52.516;13.294;2023-05-10T03:32:22;12.50;77.10
47090;DHT22;32840;52.516;13.294;2023-05-10T03:35:11;12.50;77.00
47090;DHT22;32840;52.516;13.294;2023-05-10T03:37:56;12.50;77.10
47090;DHT22;32840;52.516;13.294;2023-05-10T03:40:41;12.50;77.10
47090;DHT22;32840;52.516;13.294;2023-05-10T03:43:26;12.50;77.20
47090;DHT22;32840;52.516;13.294;2023-05-10T03:46:11;12.40;77.50
47090;DHT22;32840;52.516;13.294;2023-05-10T03:48:56;12.40;77.60
47090;DHT22;32840;52.516;13.294;2023-05-10T03:51:41;12.40;77.70
47090;DHT22;32840;52.516;13.294;2023-05-10T03:54:26;12.30;77.80
47090;DHT22;32840;52.516;13.294;2023-05-10T03:57:11;12.40;77.90
47090;DHT22;32840;52.516;13.294;2023-05-10T03:59:55;12.40;78.10
47090;DHT22;32840;52.516;13.294;2023-05-10T04:02:40;12.40;78.00
47090;DHT22;32840;52.516;13.294;2023-05-10T04:05:25;12.40;78.10
47090;DHT22;32840;52.516;13.294;2023-05-10T04:08:10;12.30;78.10
47090;DHT22;32840;52.516;13.294;2023-05-10T04:11:04;12.40;78.30
47090;DHT22;32840;52.516;13.294;2023-05-10T04:13:49;12.40;78.20
47090;DHT22;32840;52.516;13.294;2023-05-10T04:16:34;12.40;78.10
47090;DHT22;32840;52.516;13.294;2023-05-10T04:19:19;12.30;78.10
47090;DHT22;32840;52.516;13.294;2023-05-10T04:22:04;12.40;78.30
47090;DHT22;32840;52.516;13.294;2023-05-10T04:24:49;12.40;78.20
47090;DHT22;32840;52.516;13.294;2023-05-10T04:27:34;12.40;78.20
47090;DHT22;32840;52.516;13.294;2023-05-10T04:30:19;12.40;78.10
47090;DHT22;32840;52.516;13.294;2023-05-10T04:33:04;12.40;78.20
47090;DHT22;32840;52.516;13.294;2023-05-10T04:35:49;12.30;78.20
47090;DHT22;32840;52.516;13.294;2023-05-10T04:38:34;12.40;78.40
47090;DHT22;32840;52.516;13.294;2023-05-10T04:41:19;12.40;78.40
47090;DHT22;32840;52.516;13.294;2023-05-10T04:44:05;12.40;78.50
47090;DHT22;32840;52.516;13.294;2023-05-10T04:46:50;12.40;78.60
47090;DHT22;32840;52.516;13.294;2023-05-10T04:49:35;12.40;78.60
47090;DHT22;32840;52.516;13.294;2023-05-10T04:52:20;12.50;78.40
47090;DHT22;32840;52.516;13.294;2023-05-10T04:55:05;12.50;78.20
47090;DHT22;32840;52.516;13.294;2023-05-10T04:57:52;12.50;78.30
47090;DHT22;32840;52.516;13.294;2023-05-10T05:00:37;12.50;78.40
47090;DHT22;32840;52.516;13.294;2023-05-10T05:03:21;12.60;78.30
47090;DHT22;32840;52.516;13.294;2023-05-10T05:06:06;12.60;78.20
47090;DHT22;32840;52.516;13.294;2023-05-10T05:08:51;12.60;78.40
47090;DHT22;32840;52.516;13.294;2023-05-10T05:11:36;12.70;78.20
47090;DHT22;32840;52.516;13.294;2023-05-10T05:14:21;12.70;78.10
47090;DHT22;32840;52.516;13.294;2023-05-10T05:17:07;12.80;78.20
47090;DHT22;32840;52.516;13.294;2023-05-10T05:19:52;12.80;78.20
47090;DHT22;32840;52.516;13.294;2023-05-10T05:22:37;12.90;77.90
47090;DHT22;32840;52.516;13.294;2023-05-10T05:25:25;12.90;77.90
47090;DHT22;32840;52.516;13.294;2023-05-10T05:28:16;13.00;77.80
47090;DHT22;32840;52.516;13.294;2023-05-10T05:31:05;13.10;77.80
47090;DHT22;32840;52.516;13.294;2023-05-10T05:33:50;13.10;77.60
47090;DHT22;32840;52.516;13.294;2023-05-10T05:36:38;13.20;77.60
47090;DHT22;32840;52.516;13.294;2023-05-10T05:39:23;13.30;77.10
47090;DHT22;32840;52.516;13.294;2023-05-10T05:42:11;13.30;76.80
47090;DHT22;32840;52.516;13.294;2023-05-10T05:44:57;13.40;76.70
47090;DHT22;32840;52.516;13.294;2023-05-10T05:47:42;13.50;76.50
47090;DHT22;32840;52.516;13.294;2023-05-10T05:50:26;13.50;76.40
47090;DHT22;32840;52.516;13.294;2023-05-10T05:53:11;13.50;76.30
47090;DHT22;32840;52.516;13.294;2023-05-10T05:55:57;13.60;76.40
47090;DHT22;32840;52.516;13.294;2023-05-10T05:58:43;13.60;76.30
47090;DHT22;32840;52.516;13.294;2023-05-10T06:01:28;13.60;76.30
47090;DHT22;32840;52.516;13.294;2023-05-10T06:04:13;13.70;76.30
47090;DHT22;32840;52.516;13.294;2023-05-10T06:06:58;13.80;76.10
47090;DHT22;32840;52.516;13.294;2023-05-10T06:09:43;13.80;76.10
47090;DHT22;32840;52.516;13.294;2023-05-10T06:12:28;13.90;76.10
47090;DHT22;32840;52.516;13.294;2023-05-10T06:15:13;13.90;76.00
47090;DHT22;32840;52.516;13.294;2023-05-10T06:17:58;13.90;76.00
47090;DHT22;32840;52.516;13.294;2023-05-10T06:20:43;14.00;76.10
47090;DHT22;32840;52.516;13.294;2023-05-10T06:23:28;14.10;76.00
47090;DHT22;32840;52.516;13.294;2023-05-10T06:26:13;14.20;75.80
47090;DHT22;32840;52.516;13.294;2023-05-10T06:28:58;14.30;75.70
47090;DHT22;32840;52.516;13.294;2023-05-10T06:31:43;14.30;75.70
47090;DHT22;32840;52.516;13.294;2023-05-10T06:34:28;14.40;75.80
47090;DHT22;32840;52.516;13.294;2023-05-10T06:37:13;14.50;75.60
47090;DHT22;32840;52.516;13.294;2023-05-10T06:39:58;14.60;75.50
47090;DHT22;32840;52.516;13.294;2023-05-10T06:42:43;14.60;75.30
47090;DHT22;32840;52.516;13.294;2023-05-10T06:45:29;14.70;75.50
47090;DHT22;32840;52.516;13.294;2023-05-10T06:48:14;14.80;75.00
47090;DHT22;32840;52.516;13.294;2023-05-10T06:50:59;14.90;74.70
47090;DHT22;32840;52.516;13.294;2023-05-10T06:53:44;14.90;74.70
47090;DHT22;32840;52.516;13.294;2023-05-10T06:56:29;15.00;73.90
47090;DHT22;32840;52.516;13.294;2023-05-10T06:59:14;15.10;73.80
47090;DHT22;32840;52.516;13.294;2023-05-10T07:01:59;15.30;73.10
47090;DHT22;32840;52.516;13.294;2023-05-10T07:04:47;15.40;72.70
47090;DHT22;32840;52.516;13.294;2023-05-10T07:07:31;15.40;72.30
47090;DHT22;32840;52.516;13.294;2023-05-10T07:10:16;15.60;72.30
47090;DHT22;32840;52.516;13.294;2023-05-10T07:13:02;15.60;72.10
47090;DHT22;32840;52.516;13.294;2023-05-10T07:15:46;15.60;72.00
47090;DHT22;32840;52.516;13.294;2023-05-10T07:18:31;15.60;72.10
47090;DHT22;32840;52.516;13.294;2023-05-10T07:21:16;15.70;72.10
47090;DHT22;32840;52.516;13.294;2023-05-10T07:24:01;15.80;72.10
47090;DHT22;32840;52.516;13.294;2023-05-10T07:26:46;15.80;71.90
47090;DHT22;32840;52.516;13.294;2023-05-10T07:29:31;15.90;71.70
47090;DHT22;32840;52.516;13.294;2023-05-10T07:32:16;15.90;71.50
47090;DHT22;32840;52.516;13.294;2023-05-10T07:35:01;16.00;71.10
47090;DHT22;32840;52.516;13.294;2023-05-10T07:37:46;16.10;71.70
47090;DHT22;32840;52.516;13.294;2023-05-10T07:40:31;16.10;71.30
47090;DHT22;32840;52.516;13.294;2023-05-10T07:43:16;16.30;71.30
47090;DHT22;32840;52.516;13.294;2023-05-10T07:46:01;16.40;71.10
47090;DHT22;32840;52.516;13.294;2023-05-10T07:48:46;16.60;71.00
47090;DHT22;32840;52.516;13.294;2023-05-10T07:51:30;16.70;70.30
47090;DHT22;32840;52.516;13.294;2023-05-10T07:54:16;17.10;68.80
47090;DHT22;32840;52.516;13.294;2023-05-10T07:57:01;17.50;67.60
47090;DHT22;32840;52.516;13.294;2023-05-10T07:59:45;17.90;65.90
47090;DHT22;32840;52.516;13.294;2023-05-10T08:02:30;18.40;64.40
47090;DHT22;32840;52.516;13.294;2023-05-10T08:05:15;18.70;63.20
47090;DHT22;32840;52.516;13.294;2023-05-10T08:08:00;19.00;61.90
47090;DHT22;32840;52.516;13.294;2023-05-10T08:10:45;19.20;62.00
47090;DHT22;32840;52.516;13.294;2023-05-10T08:13:30;19.50;60.00
47090;DHT22;32840;52.516;13.294;2023-05-10T08:16:16;19.50;60.10
47090;DHT22;32840;52.516;13.294;2023-05-10T08:19:01;19.60;59.50
47090;DHT22;32840;52.516;13.294;2023-05-10T08:21:46;19.70;59.30
47090;DHT22;32840;52.516;13.294;2023-05-10T08:24:31;19.70;60.00
47090;DHT22;32840;52.516;13.294;2023-05-10T08:27:16;19.80;59.30
47090;DHT22;32840;52.516;13.294;2023-05-10T08:30:01;19.90;59.60
47090;DHT22;32840;52.516;13.294;2023-05-10T08:32:46;20.30;58.70
47090;DHT22;32840;52.516;13.294;2023-05-10T08:35:31;20.50;57.90
47090;DHT22;32840;52.516;13.294;2023-05-10T08:38:16;20.90;57.50
47090;DHT22;32840;52.516;13.294;2023-05-10T08:41:02;20.90;57.10
47090;DHT22;32840;52.516;13.294;2023-05-10T08:43:47;20.90;56.50
47090;DHT22;32840;52.516;13.294;2023-05-10T08:46:33;21.10;56.80
47090;DHT22;32840;52.516;13.294;2023-05-10T08:49:25;21.20;55.90
47090;DHT22;32840;52.516;13.294;2023-05-10T08:52:13;21.20;56.80
47090;DHT22;32840;52.516;13.294;2023-05-10T08:54:59;21.30;56.40
47090;DHT22;32840;52.516;13.294;2023-05-10T08:57:44;21.50;55.70
47090;DHT22;32840;52.516;13.294;2023-05-10T09:00:29;21.60;55.80
47090;DHT22;32840;52.516;13.294;2023-05-10T09:03:15;21.90;55.10
47090;DHT22;32840;52.516;13.294;2023-05-10T09:06:00;21.90;54.70
47090;DHT22;32840;52.516;13.294;2023-05-10T09:08:45;22.00;54.90
47090;DHT22;32840;52.516;13.294;2023-05-10T09:11:30;22.20;54.60
47090;DHT22;32840;52.516;13.294;2023-05-10T09:14:16;22.20;54.50
47090;DHT22;32840;52.516;13.294;2023-05-10T09:17:01;22.20;54.30
47090;DHT22;32840;52.516;13.294;2023-05-10T09:19:46;22.10;54.70
47090;DHT22;32840;52.516;13.294;2023-05-10T09:22:31;21.90;55.00
47090;DHT22;32840;52.516;13.294;2023-05-10T09:25:17;21.90;55.30
47090;DHT22;32840;52.516;13.294;2023-05-10T09:28:02;22.00;55.10
47090;DHT22;32840;52.516;13.294;2023-05-10T09:30:53;22.10;54.70
47090;DHT22;32840;52.516;13.294;2023-05-10T09:33:47;22.10;54.40
47090;DHT22;32840;52.516;13.294;2023-05-10T09:36:31;22.20;54.20
47090;DHT22;32840;52.516;13.294;2023-05-10T09:39:16;22.10;54.40
47090;DHT22;32840;52.516;13.294;2023-05-10T09:42:05;22.20;54.60
47090;DHT22;32840;52.516;13.294;2023-05-10T09:44:50;22.20;54.40
47090;DHT22;32840;52.516;13.294;2023-05-10T09:47:35;22.20;54.30
47090;DHT22;32840;52.516;13.294;2023-05-10T09:50:21;22.20;54.10
47090;DHT22;32840;52.516;13.294;2023-05-10T09:53:06;22.10;53.80
47090;DHT22;32840;52.516;13.294;2023-05-10T09:55:51;22.20;54.10
47090;DHT22;32840;52.516;13.294;2023-05-10T09:58:37;22.30;54.20
47090;DHT22;32840;52.516;13.294;2023-05-10T10:01:26;22.30;54.30
47090;DHT22;32840;52.516;13.294;2023-05-10T10:04:10;22.30;54.60
47090;DHT22;32840;52.516;13.294;2023-05-10T10:07:04;22.10;54.60
47090;DHT22;32840;52.516;13.294;2023-05-10T10:09:49;22.10;54.40
47090;DHT22;32840;52.516;13.294;2023-05-10T10:12:34;22.20;54.30
47090;DHT22;32840;52.516;13.294;2023-05-10T10:15:24;22.20;53.40
47090;DHT22;32840;52.516;13.294;2023-05-10T10:18:12;22.20;53.40
47090;DHT22;32840;52.516;13.294;2023-05-10T10:20:58;22.20;53.50
47090;DHT22;32840;52.516;13.294;2023-05-10T10:23:42;22.00;53.80
47090;DHT22;32840;52.516;13.294;2023-05-10T10:26:28;22.00;54.40
47090;DHT22;32840;52.516;13.294;2023-05-10T10:29:32;22.10;54.70
47090;DHT22;32840;52.516;13.294;2023-05-10T10:32:28;22.00;53.80
47090;DHT22;32840;52.516;13.294;2023-05-10T10:35:15;21.90;54.10
47090;DHT22;32840;52.516;13.294;2023-05-10T10:38:00;21.80;54.70
47090;DHT22;32840;52.516;13.294;2023-05-10T10:40:45;21.90;54.10
47090;DHT22;32840;52.516;13.294;2023-05-10T10:43:30;21.90;54.30
47090;DHT22;32840;52.516;13.294;2023-05-10T10:46:16;21.90;53.50
47090;DHT22;32840;52.516;13.294;2023-05-10T10:49:10;21.80;53.70
47090;DHT22;32840;52.516;13.294;2023-05-10T10:52:15;21.70;54.80
47090;DHT22;32840;52.516;13.294;2023-05-10T10:57:53;21.70;54.40
47090;DHT22;32840;52.516;13.294;2023-05-10T11:00:44;21.60;53.90
47090;DHT22;32840;52.516;13.294;2023-05-10T11:03:30;21.60;54.40
47090;DHT22;32840;52.516;13.294;2023-05-10T11:06:32;21.50;54.30
47090;DHT22;32840;52.516;13.294;2023-05-10T11:09:18;21.50;53.80
47090;DHT22;32840;52.516;13.294;2023-05-10T11:12:08;21.40;54.30
47090;DHT22;32840;52.516;13.294;2023-05-10T11:14:57;21.50;54.50
47090;DHT22;32840;52.516;13.294;2023-05-10T11:17:42;21.50;54.60
47090;DHT22;32840;52.516;13.294;2023-05-10T11:20:28;21.50;55.00
47090;DHT22;32840;52.516;13.294;2023-05-10T11:23:18;21.60;55.00
47090;DHT22;32840;52.516;13.294;2023-05-10T11:26:04;21.50;55.00
47090;DHT22;32840;52.516;13.294;2023-05-10T11:28:54;21.50;54.80
47090;DHT22;32840;52.516;13.294;2023-05-10T11:31:44;21.50;54.70
47090;DHT22;32840;52.516;13.294;2023-05-10T11:34:32;21.50;54.60
47090;DHT22;32840;52.516;13.294;2023-05-10T11:37:19;21.50;54.80
47090;DHT22;32840;52.516;13.294;2023-05-10T11:40:05;21.60;55.10
47090;DHT22;32840;52.516;13.294;2023-05-10T11:42:50;21.70;55.30
47090;DHT22;32840;52.516;13.294;2023-05-10T11:45:35;21.70;54.80
47090;DHT22;32840;52.516;13.294;2023-05-10T11:48:20;21.80;54.80
47090;DHT22;32840;52.516;13.294;2023-05-10T11:51:08;21.80;54.30
47090;DHT22;32840;52.516;13.294;2023-05-10T11:53:55;21.70;54.00
47090;DHT22;32840;52.516;13.294;2023-05-10T11:56:40;21.80;53.10
47090;DHT22;32840;52.516;13.294;2023-05-10T11:59:25;21.80;52.50
47090;DHT22;32840;52.516;13.294;2023-05-10T12:02:11;21.90;52.90
47090;DHT22;32840;52.516;13.294;2023-05-10T12:04:56;21.90;53.20
47090;DHT22;32840;52.516;13.294;2023-05-10T12:07:40;21.80;53.40
47090;DHT22;32840;52.516;13.294;2023-05-10T12:10:26;21.80;53.50
47090;DHT22;32840;52.516;13.294;2023-05-10T12:13:12;21.80;53.50
47090;DHT22;32840;52.516;13.294;2023-05-10T12:15:59;21.90;53.20
47090;DHT22;32840;52.516;13.294;2023-05-10T12:18:45;21.90;53.50
47090;DHT22;32840;52.516;13.294;2023-05-10T12:21:32;22.00;53.50
47090;DHT22;32840;52.516;13.294;2023-05-10T12:24:18;22.00;51.70
47090;DHT22;32840;52.516;13.294;2023-05-10T12:27:08;22.00;52.10
47090;DHT22;32840;52.516;13.294;2023-05-10T12:29:53;22.00;52.50
47090;DHT22;32840;52.516;13.294;2023-05-10T12:32:40;22.00;52.80
47090;DHT22;32840;52.516;13.294;2023-05-10T12:35:25;22.00;53.10
47090;DHT22;32840;52.516;13.294;2023-05-10T12:38:33;22.00;53.20
47090;DHT22;32840;52.516;13.294;2023-05-10T12:41:18;22.00;52.50
47090;DHT22;32840;52.516;13.294;2023-05-10T12:44:03;22.00;52.60
47090;DHT22;32840;52.516;13.294;2023-05-10T12:46:48;22.10;52.30
47090;DHT22;32840;52.516;13.294;2023-05-10T12:49:33;22.20;52.20
47090;DHT22;32840;52.516;13.294;2023-05-10T12:52:18;22.30;52.40
47090;DHT22;32840;52.516;13.294;2023-05-10T12:55:03;22.30;51.80
47090;DHT22;32840;52.516;13.294;2023-05-10T12:57:48;22.30;53.00
47090;DHT22;32840;52.516;13.294;2023-05-10T13:00:33;22.40;51.50
47090;DHT22;32840;52.516;13.294;2023-05-10T13:03:18;22.40;51.80
47090;DHT22;32840;52.516;13.294;2023-05-10T13:06:03;22.40;51.70
47090;DHT22;32840;52.516;13.294;2023-05-10T13:08:48;22.40;52.00
47090;DHT22;32840;52.516;13.294;2023-05-10T13:11:33;22.40;51.90
47090;DHT22;32840;52.516;13.294;2023-05-10T13:14:18;22.40;51.80
47090;DHT22;32840;52.516;13.294;2023-05-10T13:17:04;22.50;51.50
47090;DHT22;32840;52.516;13.294;2023-05-10T13:19:49;22.50;51.90
47090;DHT22;32840;52.516;13.294;2023-05-10T13:22:34;22.50;51.70
47090;DHT22;32840;52.516;13.294;2023-05-10T13:25:19;22.50;51.50
47090;DHT22;32840;52.516;13.294;2023-05-10T13:28:04;22.50;51.30
47090;DHT22;32840;52.516;13.294;2023-05-10T13:30:49;22.60;51.30
47090;DHT22;32840;52.516;13.294;2023-05-10T13:33:34;22.60;51.00
47090;DHT22;32840;52.516;13.294;2023-05-10T13:36:19;22.50;51.00
47090;DHT22;32840;52.516;13.294;2023-05-10T13:39:04;22.40;51.20
47090;DHT22;32840;52.516;13.294;2023-05-10T13:41:49;22.40;51.40
47090;DHT22;32840;52.516;13.294;2023-05-10T13:44:34;22.50;51.60
47090;DHT22;32840;52.516;13.294;2023-05-10T13:47:20;22.50;51.30
47090;DHT22;32840;52.516;13.294;2023-05-10T13:50:06;22.60;51.20
47090;DHT22;32840;52.516;13.294;2023-05-10T13:52:51;22.60;50.40
47090;DHT22;32840;52.516;13.294;2023-05-10T13:55:36;22.60;50.40
47090;DHT22;32840;52.516;13.294;2023-05-10T13:58:21;22.50;50.20
47090;DHT22;32840;52.516;13.294;2023-05-10T14:01:06;22.40;50.80
47090;DHT22;32840;52.516;13.294;2023-05-10T14:03:51;22.20;50.80
47090;DHT22;32840;52.516;13.294;2023-05-10T14:06:36;22.20;50.60
47090;DHT22;32840;52.516;13.294;2023-05-10T14:09:21;22.20;51.20
47090;DHT22;32840;52.516;13.294;2023-05-10T14:12:06;22.40;51.50
47090;DHT22;32840;52.516;13.294;2023-05-10T14:14:51;22.50;51.00
47090;DHT22;32840;52.516;13.294;2023-05-10T14:17:37;22.60;50.80
47090;DHT22;32840;52.516;13.294;2023-05-10T14:20:22;22.70;49.80
47090;DHT22;32840;52.516;13.294;2023-05-10T14:23:07;22.70;49.40
47090;DHT22;32840;52.516;13.294;2023-05-10T14:25:52;22.70;49.10
47090;DHT22;32840;52.516;13.294;2023-05-10T14:28:37;22.60;49.20
47090;DHT22;32840;52.516;13.294;2023-05-10T14:31:22;22.50;49.70
47090;DHT22;32840;52.516;13.294;2023-05-10T14:34:08;22.40;49.60
47090;DHT22;32840;52.516;13.294;2023-05-10T14:36:53;22.30;49.80
47090;DHT22;32840;52.516;13.294;2023-05-10T14:39:38;22.20;50.30
47090;DHT22;32840;52.516;13.294;2023-05-10T14:42:23;22.10;50.20
47090;DHT22;32840;52.516;13.294;2023-05-10T14:45:08;22.10;50.00
47090;DHT22;32840;52.516;13.294;2023-05-10T14:47:54;22.10;50.00
47090;DHT22;32840;52.516;13.294;2023-05-10T14:50:39;22.00;49.60
47090;DHT22;32840;52.516;13.294;2023-05-10T14:53:24;22.00;49.70
47090;DHT22;32840;52.516;13.294;2023-05-10T14:56:08;22.00;50.10
47090;DHT22;32840;52.516;13.294;2023-05-10T14:58:53;22.00;50.20
47090;DHT22;32840;52.516;13.294;2023-05-10T15:01:39;22.00;50.60
47090;DHT22;32840;52.516;13.294;2023-05-10T15:04:25;22.10;50.80
47090;DHT22;32840;52.516;13.294;2023-05-10T15:07:10;22.10;50.40
47090;DHT22;32840;52.516;13.294;2023-05-10T15:09:58;22.20;50.50
47090;DHT22;32840;52.516;13.294;2023-05-10T15:12:43;22.20;50.40
47090;DHT22;32840;52.516;13.294;2023-05-10T15:15:29;22.20;50.20
47090;DHT22;32840;52.516;13.294;2023-05-10T15:18:14;22.30;49.90
47090;DHT22;32840;52.516;13.294;2023-05-10T15:20:59;22.40;49.80
47090;DHT22;32840;52.516;13.294;2023-05-10T15:23:44;22.50;51.30
47090;DHT22;32840;52.516;13.294;2023-05-10T15:26:29;22.50;50.50
47090;DHT22;32840;52.516;13.294;2023-05-10T15:29:14;22.60;49.70
47090;DHT22;32840;52.516;13.294;2023-05-10T15:32:04;22.80;50.60
47090;DHT22;32840;52.516;13.294;2023-05-10T15:34:49;22.90;50.10
47090;DHT22;32840;52.516;13.294;2023-05-10T15:37:34;22.90;49.80
47090;DHT22;32840;52.516;13.294;2023-05-10T15:40:19;23.00;50.30
47090;DHT22;32840;52.516;13.294;2023-05-10T15:43:04;23.00;49.80
47090;DHT22;32840;52.516;13.294;2023-05-10T15:45:49;23.00;49.50
47090;DHT22;32840;52.516;13.294;2023-05-10T15:48:35;23.00;50.00
47090;DHT22;32840;52.516;13.294;2023-05-10T15:51:20;23.00;50.10
47090;DHT22;32840;52.516;13.294;2023-05-10T15:54:05;23.00;50.40
47090;DHT22;32840;52.516;13.294;2023-05-10T15:56:50;22.90;49.50
47090;DHT22;32840;52.516;13.294;2023-05-10T15:59:36;22.70;50.10
47090;DHT22;32840;52.516;13.294;2023-05-10T16:02:21;22.70;50.40
47090;DHT22;32840;52.516;13.294;2023-05-10T16:05:07;22.60;50.30
47090;DHT22;32840;52.516;13.294;2023-05-10T16:07:52;22.60;50.70
47090;DHT22;32840;52.516;13.294;2023-05-10T16:10:38;22.60;51.00
47090;DHT22;32840;52.516;13.294;2023-05-10T16:13:23;22.50;50.80
47090;DHT22;32840;52.516;13.294;2023-05-10T16:16:08;22.50;51.20
47090;DHT22;32840;52.516;13.294;2023-05-10T16:18:53;22.40;51.60
47090;DHT22;32840;52.516;13.294;2023-05-10T16:21:38;22.40;51.90
47090;DHT22;32840;52.516;13.294;2023-05-10T16:24:23;22.30;54.60
47090;DHT22;32840;52.516;13.294;2023-05-10T16:27:08;22.20;60.40
47090;DHT22;32840;52.516;13.294;2023-05-10T16:29:53;22.10;63.20
47090;DHT22;32840;52.516;13.294;2023-05-10T16:32:38;22.10;64.60
47090;DHT22;32840;52.516;13.294;2023-05-10T16:35:23;22.00;65.50
47090;DHT22;32840;52.516;13.294;2023-05-10T16:38:08;22.00;65.90
47090;DHT22;32840;52.516;13.294;2023-05-10T16:40:53;21.80;68.80
47090;DHT22;32840;52.516;13.294;2023-05-10T16:43:38;21.60;69.70
47090;DHT22;32840;52.516;13.294;2023-05-10T16:46:23;21.50;69.60
47090;DHT22;32840;52.516;13.294;2023-05-10T16:49:08;21.40;69.50
47090;DHT22;32840;52.516;13.294;2023-05-10T16:51:53;21.40;70.40
47090;DHT22;32840;52.516;13.294;2023-05-10T16:54:38;21.30;70.90
47090;DHT22;32840;52.516;13.294;2023-05-10T16:57:23;21.30;71.90
47090;DHT22;32840;52.516;13.294;2023-05-10T17:00:08;21.20;71.40
47090;DHT22;32840;52.516;13.294;2023-05-10T17:02:55;21.20;73.70
47090;DHT22;32840;52.516;13.294;2023-05-10T17:05:40;21.10;75.50
47090;DHT22;32840;52.516;13.294;2023-05-10T17:08:25;20.80;76.50
47090;DHT22;32840;52.516;13.294;2023-05-10T17:11:10;20.70;76.90
47090;DHT22;32840;52.516;13.294;2023-05-10T17:13:55;20.70;77.00
47090;DHT22;32840;52.516;13.294;2023-05-10T17:16:40;20.70;77.80
47090;DHT22;32840;52.516;13.294;2023-05-10T17:19:25;20.60;78.50
47090;DHT22;32840;52.516;13.294;2023-05-10T17:22:11;20.60;79.10
47090;DHT22;32840;52.516;13.294;2023-05-10T17:24:57;20.40;80.00
47090;DHT22;32840;52.516;13.294;2023-05-10T17:27:41;20.30;80.60
47090;DHT22;32840;52.516;13.294;2023-05-10T17:30:26;20.20;81.00